Taos, New Mexico
Current Conditions -  °F | °C
As of 8:35 AM on Thursday 30 Oct 2014 (Local Time) from KSKX Reporting Station
Clear Clear  
Wind Chill: 32°   Ceiling: Unl
Heat Index: 36°   Visibility: 10mi
Dew Point: 12°   Wind: 5mph
Humidity: 38%   Direction: 10°N
Pressure: 30.41"   Gusts: NA
Location:  36.41°N, 105.57°W
Report Text: KSKX 301435Z AUTO 01004KT 10SM CLR 02/M11 A3041 RMK AO1
Loading
Personal Weather Stations






























Interactive Weather Map
Tropical Storm Tracking
New forecast layout! Learn more

10-Day Weather Forecast

Advertisements
Track Severe Weather on mobile